sensor_id;sensor_type;location;lat;lon;timestamp;pressure;altitude;pressure_sealevel;temperature;humidity
19795;BME280;10057;59.402;17.866;2023-08-07T00:02:03;99807.69;;;19.70;82.43
19795;BME280;10057;59.402;17.866;2023-08-07T00:04:31;99808.66;;;19.69;82.58
19795;BME280;10057;59.402;17.866;2023-08-07T00:06:57;99807.69;;;19.70;82.15
19795;BME280;10057;59.402;17.866;2023-08-07T00:09:24;99800.75;;;19.68;82.39
19795;BME280;10057;59.402;17.866;2023-08-07T00:11:51;99770.81;;;19.61;82.35
19795;BME280;10057;59.402;17.866;2023-08-07T00:14:17;99786.44;;;19.67;82.43
19795;BME280;10057;59.402;17.866;2023-08-07T00:16:44;99781.91;;;19.68;82.21
19795;BME280;10057;59.402;17.866;2023-08-07T00:19:11;99767.63;;;19.67;82.24
19795;BME280;10057;59.402;17.866;2023-08-07T00:21:38;99775.53;;;19.69;82.25
19795;BME280;10057;59.402;17.866;2023-08-07T00:24:05;99760.97;;;19.71;82.39
19795;BME280;10057;59.402;17.866;2023-08-07T00:26:32;99749.91;;;19.74;82.62
19795;BME280;10057;59.402;17.866;2023-08-07T00:28:59;99753.34;;;19.76;82.41
19795;BME280;10057;59.402;17.866;2023-08-07T00:31:26;99733.78;;;19.74;82.42
19795;BME280;10057;59.402;17.866;2023-08-07T00:33:58;99729.25;;;19.75;82.59
19795;BME280;10057;59.402;17.866;2023-08-07T00:36:25;99740.84;;;19.75;82.64
19795;BME280;10057;59.402;17.866;2023-08-07T00:38:55;99746.94;;;19.77;82.62
19795;BME280;10057;59.402;17.866;2023-08-07T00:41:23;99760.41;;;19.77;82.52
19795;BME280;10057;59.402;17.866;2023-08-07T00:43:50;99749.75;;;19.76;82.31
19795;BME280;10057;59.402;17.866;2023-08-07T00:46:17;99743.13;;;19.70;82.50
19795;BME280;10057;59.402;17.866;2023-08-07T00:48:46;99758.84;;;19.75;82.62
19795;BME280;10057;59.402;17.866;2023-08-07T00:51:14;99779.50;;;19.74;82.61
19795;BME280;10057;59.402;17.866;2023-08-07T00:53:43;99756.31;;;19.73;82.51
19795;BME280;10057;59.402;17.866;2023-08-07T00:56:10;99735.47;;;19.75;82.65
19795;BME280;10057;59.402;17.866;2023-08-07T00:58:38;99732.78;;;19.75;82.65
19795;BME280;10057;59.402;17.866;2023-08-07T01:01:06;99747.22;;;19.74;82.77
19795;BME280;10057;59.402;17.866;2023-08-07T01:03:33;99852.16;;;19.74;82.68
19795;BME280;10057;59.402;17.866;2023-08-07T01:06:01;99873.69;;;19.74;82.50
19795;BME280;10057;59.402;17.866;2023-08-07T01:08:30;99862.47;;;19.69;82.54
19795;BME280;10057;59.402;17.866;2023-08-07T01:17:11;99841.25;;;19.66;82.65
19795;BME280;10057;59.402;17.866;2023-08-07T01:19:42;99861.50;;;19.70;82.76
19795;BME280;10057;59.402;17.866;2023-08-07T01:22:14;99854.13;;;19.72;82.57
19795;BME280;10057;59.402;17.866;2023-08-07T01:24:43;99839.72;;;19.73;82.60
19795;BME280;10057;59.402;17.866;2023-08-07T01:32:49;99826.38;;;19.72;82.35
19795;BME280;10057;59.402;17.866;2023-08-07T01:35:22;99832.88;;;19.69;82.48
19795;BME280;10057;59.402;17.866;2023-08-07T01:37:54;99809.66;;;19.68;82.77
19795;BME280;10057;59.402;17.866;2023-08-07T01:40:22;99794.34;;;19.59;82.59
19795;BME280;10057;59.402;17.866;2023-08-07T01:42:50;99814.47;;;19.64;82.67
19795;BME280;10057;59.402;17.866;2023-08-07T01:45:27;99812.78;;;19.63;82.54
19795;BME280;10057;59.402;17.866;2023-08-07T01:47:55;99798.47;;;19.63;82.86
19795;BME280;10057;59.402;17.866;2023-08-07T01:50:24;99787.38;;;19.56;82.68
19795;BME280;10057;59.402;17.866;2023-08-07T01:52:56;99802.84;;;19.64;82.76
19795;BME280;10057;59.402;17.866;2023-08-07T01:55:23;99800.16;;;19.64;82.71
19795;BME280;10057;59.402;17.866;2023-08-07T01:57:50;99779.38;;;19.66;82.83
19795;BME280;10057;59.402;17.866;2023-08-07T02:00:19;99780.06;;;19.68;82.92
19795;BME280;10057;59.402;17.866;2023-08-07T02:03:12;99784.44;;;19.69;82.70
19795;BME280;10057;59.402;17.866;2023-08-07T02:05:48;99788.84;;;19.70;82.92
19795;BME280;10057;59.402;17.866;2023-08-07T02:08:19;99772.44;;;19.73;82.98
19795;BME280;10057;59.402;17.866;2023-08-07T02:10:50;99758.25;;;19.71;82.82
19795;BME280;10057;59.402;17.866;2023-08-07T02:13:17;99769.75;;;19.73;82.81
19795;BME280;10057;59.402;17.866;2023-08-07T02:15:45;99750.47;;;19.68;82.56
19795;BME280;10057;59.402;17.866;2023-08-07T02:18:15;99737.75;;;19.70;82.80
19795;BME280;10057;59.402;17.866;2023-08-07T02:21:04;99735.06;;;19.70;82.74
19795;BME280;10057;59.402;17.866;2023-08-07T02:23:39;99752.47;;;19.66;82.83
19795;BME280;10057;59.402;17.866;2023-08-07T02:26:11;99735.00;;;19.60;82.92
19795;BME280;10057;59.402;17.866;2023-08-07T02:28:39;99739.72;;;19.68;83.00
19795;BME280;10057;59.402;17.866;2023-08-07T02:31:07;99753.31;;;19.67;82.87
19795;BME280;10057;59.402;17.866;2023-08-07T02:33:45;99750.47;;;19.68;82.86
19795;BME280;10057;59.402;17.866;2023-08-07T02:36:31;99746.09;;;19.67;82.81
19795;BME280;10057;59.402;17.866;2023-08-07T02:38:59;99736.59;;;19.63;82.93
19795;BME280;10057;59.402;17.866;2023-08-07T02:41:40;99752.00;;;19.61;82.76
19795;BME280;10057;59.402;17.866;2023-08-07T02:44:08;99769.81;;;19.62;82.92
19795;BME280;10057;59.402;17.866;2023-08-07T02:46:37;99767.44;;;19.59;82.95
19795;BME280;10057;59.402;17.866;2023-08-07T02:49:10;99742.22;;;19.60;83.08
19795;BME280;10057;59.402;17.866;2023-08-07T02:51:37;99748.06;;;19.65;83.30
19795;BME280;10057;59.402;17.866;2023-08-07T02:54:06;99755.84;;;19.68;83.21
19795;BME280;10057;59.402;17.866;2023-08-07T02:56:33;99752.47;;;19.66;82.83
19795;BME280;10057;59.402;17.866;2023-08-07T02:59:00;99750.47;;;19.68;82.81
19795;BME280;10057;59.402;17.866;2023-08-07T03:01:28;99753.16;;;19.68;83.09
19795;BME280;10057;59.402;17.866;2023-08-07T03:03:56;99754.84;;;19.69;83.12
19795;BME280;10057;59.402;17.866;2023-08-07T03:06:23;99746.50;;;19.72;83.13
19795;BME280;10057;59.402;17.866;2023-08-07T03:08:50;99733.06;;;19.72;83.25
19795;BME280;10057;59.402;17.866;2023-08-07T03:11:17;99710.84;;;19.70;83.03
19795;BME280;10057;59.402;17.866;2023-08-07T03:13:43;99709.41;;;19.76;83.00
19795;BME280;10057;59.402;17.866;2023-08-07T03:16:12;99696.94;;;19.75;83.06
19795;BME280;10057;59.402;17.866;2023-08-07T03:18:39;99701.50;;;19.74;82.85
19795;BME280;10057;59.402;17.866;2023-08-07T03:21:06;99683.66;;;19.73;83.13
19795;BME280;10057;59.402;17.866;2023-08-07T03:23:33;99664.25;;;19.70;82.97
19795;BME280;10057;59.402;17.866;2023-08-07T03:26:08;99667.34;;;19.75;83.05
19795;BME280;10057;59.402;17.866;2023-08-07T03:28:38;99681.94;;;19.72;82.92
19795;BME280;10057;59.402;17.866;2023-08-07T03:31:05;99678.00;;;19.67;83.09
19795;BME280;10057;59.402;17.866;2023-08-07T03:33:33;99674.03;;;19.71;83.03
19795;BME280;10057;59.402;17.866;2023-08-07T03:35:59;99661.97;;;19.65;83.38
19795;BME280;10057;59.402;17.866;2023-08-07T03:38:26;99669.06;;;19.66;83.03
19795;BME280;10057;59.402;17.866;2023-08-07T03:40:53;99678.69;;;19.69;83.01
19795;BME280;10057;59.402;17.866;2023-08-07T03:43:20;99674.03;;;19.71;83.03
19795;BME280;10057;59.402;17.866;2023-08-07T03:45:47;99661.28;;;19.73;83.10
19795;BME280;10057;59.402;17.866;2023-08-07T03:48:14;99655.91;;;19.73;82.91
19795;BME280;10057;59.402;17.866;2023-08-07T03:50:40;99659.56;;;19.72;82.88
19795;BME280;10057;59.402;17.866;2023-08-07T03:53:07;99647.84;;;19.73;83.07
19795;BME280;10057;59.402;17.866;2023-08-07T03:55:34;99670.19;;;19.73;83.06
19795;BME280;10057;59.402;17.866;2023-08-07T03:58:02;99682.50;;;19.76;83.08
19795;BME280;10057;59.402;17.866;2023-08-07T04:00:30;99689.59;;;19.77;83.24
19795;BME280;10057;59.402;17.866;2023-08-07T04:02:57;99679.97;;;19.74;83.03
19795;BME280;10057;59.402;17.866;2023-08-07T04:05:24;99662.97;;;19.74;82.90
19795;BME280;10057;59.402;17.866;2023-08-07T04:07:50;99663.81;;;19.74;82.95
19795;BME280;10057;59.402;17.866;2023-08-07T04:10:17;99652.78;;;19.77;83.09
19795;BME280;10057;59.402;17.866;2023-08-07T04:12:44;99649.66;;;19.72;83.18
19795;BME280;10057;59.402;17.866;2023-08-07T04:15:11;99639.59;;;19.74;83.19
19795;BME280;10057;59.402;17.866;2023-08-07T04:17:37;99637.19;;;19.71;83.16
19795;BME280;10057;59.402;17.866;2023-08-07T04:20:05;99633.50;;;19.72;83.03
19795;BME280;10057;59.402;17.866;2023-08-07T04:22:32;99653.34;;;19.71;83.16
19795;BME280;10057;59.402;17.866;2023-08-07T04:24:58;99627.00;;;19.65;83.25
19795;BME280;10057;59.402;17.866;2023-08-07T04:27:26;99658.44;;;19.74;83.01
19795;BME280;10057;59.402;17.866;2023-08-07T04:29:53;99651.38;;;19.73;82.97
19795;BME280;10057;59.402;17.866;2023-08-07T04:32:20;99635.91;;;19.75;83.14
19795;BME280;10057;59.402;17.866;2023-08-07T04:34:49;99620.50;;;19.77;83.15
19795;BME280;10057;59.402;17.866;2023-08-07T04:37:19;99612.41;;;19.77;83.29
19795;BME280;10057;59.402;17.866;2023-08-07T04:39:45;99603.34;;;19.78;83.15
19795;BME280;10057;59.402;17.866;2023-08-07T04:42:12;99611.84;;;19.83;83.23
19795;BME280;10057;59.402;17.866;2023-08-07T04:44:39;99602.78;;;19.84;83.23
19795;BME280;10057;59.402;17.866;2023-08-07T04:47:07;99596.13;;;19.88;83.25
19795;BME280;10057;59.402;17.866;2023-08-07T04:49:34;99591.84;;;19.96;83.26
19795;BME280;10057;59.402;17.866;2023-08-07T04:52:01;99589.72;;;19.99;83.15
19795;BME280;10057;59.402;17.866;2023-08-07T04:54:47;99593.69;;;20.05;83.31
19795;BME280;10057;59.402;17.866;2023-08-07T04:57:14;99580.06;;;20.06;83.10
19795;BME280;10057;59.402;17.866;2023-08-07T04:59:41;99592.94;;;20.12;83.13
19795;BME280;10057;59.402;17.866;2023-08-07T05:02:08;99584.44;;;20.17;83.28
19795;BME280;10057;59.402;17.866;2023-08-07T05:04:34;99577.59;;;20.23;83.22
19795;BME280;10057;59.402;17.866;2023-08-07T05:07:01;99562.59;;;20.20;83.28
19795;BME280;10057;59.402;17.866;2023-08-07T05:09:32;99572.19;;;20.32;83.35
19795;BME280;10057;59.402;17.866;2023-08-07T05:12:00;99574.97;;;20.41;83.27
19795;BME280;10057;59.402;17.866;2023-08-07T05:14:29;99571.69;;;20.47;82.97
19795;BME280;10057;59.402;17.866;2023-08-07T05:16:58;99575.81;;;20.51;83.11
19795;BME280;10057;59.402;17.866;2023-08-07T05:19:26;99567.31;;;20.46;83.02
19795;BME280;10057;59.402;17.866;2023-08-07T05:21:57;99558.38;;;20.55;82.88
19795;BME280;10057;59.402;17.866;2023-08-07T05:24:26;99569.84;;;20.57;82.96
19795;BME280;10057;59.402;17.866;2023-08-07T05:26:55;99578.34;;;20.62;83.11
19795;BME280;10057;59.402;17.866;2023-08-07T05:29:22;99583.44;;;20.65;82.84
19795;BME280;10057;59.402;17.866;2023-08-07T05:31:49;99579.03;;;20.64;82.97
19795;BME280;10057;59.402;17.866;2023-08-07T05:34:16;99584.28;;;20.66;82.62
19795;BME280;10057;59.402;17.866;2023-08-07T05:36:43;99596.56;;;20.68;82.87
19795;BME280;10057;59.402;17.866;2023-08-07T05:39:10;99589.50;;;20.67;82.86
19795;BME280;10057;59.402;17.866;2023-08-07T05:41:37;99623.53;;;20.68;82.61
19795;BME280;10057;59.402;17.866;2023-08-07T05:44:05;99596.19;;;20.63;82.52
19795;BME280;10057;59.402;17.866;2023-08-07T05:46:32;99588.81;;;20.65;82.50
19795;BME280;10057;59.402;17.866;2023-08-07T05:49:00;99609.50;;;20.65;83.00
19795;BME280;10057;59.402;17.866;2023-08-07T05:51:27;99600.56;;;20.64;82.96
19795;BME280;10057;59.402;17.866;2023-08-07T05:53:53;99573.63;;;20.64;82.95
19795;BME280;10057;59.402;17.866;2023-08-07T05:56:20;99560.16;;;20.64;82.84
19795;BME280;10057;59.402;17.866;2023-08-07T05:58:47;99552.78;;;20.66;82.98
19795;BME280;10057;59.402;17.866;2023-08-07T06:01:15;99561.56;;;20.68;83.00
19795;BME280;10057;59.402;17.866;2023-08-07T06:03:43;99564.66;;;20.73;83.19
19795;BME280;10057;59.402;17.866;2023-08-07T06:06:10;99572.56;;;20.75;82.89
19795;BME280;10057;59.402;17.866;2023-08-07T06:08:37;99561.78;;;20.75;82.80
19795;BME280;10057;59.402;17.866;2023-08-07T06:11:04;99582.38;;;20.76;83.07
19795;BME280;10057;59.402;17.866;2023-08-07T06:13:31;99569.75;;;20.76;82.73
19795;BME280;10057;59.402;17.866;2023-08-07T06:16:02;99560.66;;;20.77;83.10
19795;BME280;10057;59.402;17.866;2023-08-07T06:18:29;99546.19;;;20.78;82.92
19795;BME280;10057;59.402;17.866;2023-08-07T06:20:56;99541.66;;;20.79;82.59
19795;BME280;10057;59.402;17.866;2023-08-07T06:23:23;99527.31;;;20.78;82.62
19795;BME280;10057;59.402;17.866;2023-08-07T06:25:50;99526.16;;;20.81;82.82
19795;BME280;10057;59.402;17.866;2023-08-07T06:28:23;99517.09;;;20.82;82.77
19795;BME280;10057;59.402;17.866;2023-08-07T06:30:50;99515.63;;;20.88;82.98
19795;BME280;10057;59.402;17.866;2023-08-07T06:33:17;99509.09;;;20.90;83.01
19795;BME280;10057;59.402;17.866;2023-08-07T06:35:44;99506.78;;;20.95;82.82
19795;BME280;10057;59.402;17.866;2023-08-07T06:38:11;99503.94;;;20.97;82.94
19795;BME280;10057;59.402;17.866;2023-08-07T06:40:37;99490.47;;;20.97;82.57
19795;BME280;10057;59.402;17.866;2023-08-07T06:43:04;99494.06;;;21.05;82.51
19795;BME280;10057;59.402;17.866;2023-08-07T06:45:32;99510.47;;;21.12;82.70
19795;BME280;10057;59.402;17.866;2023-08-07T06:47:59;99507.47;;;21.15;82.85
19795;BME280;10057;59.402;17.866;2023-08-07T06:50:26;99516.81;;;21.21;82.65
19795;BME280;10057;59.402;17.866;2023-08-07T06:52:53;99515.78;;;21.22;82.92
19795;BME280;10057;59.402;17.866;2023-08-07T06:55:20;99518.03;;;21.26;82.74
19795;BME280;10057;59.402;17.866;2023-08-07T06:57:48;99517.47;;;21.23;82.58
19795;BME280;10057;59.402;17.866;2023-08-07T07:00:16;99532.59;;;21.34;82.64
19795;BME280;10057;59.402;17.866;2023-08-07T07:02:42;99534.22;;;21.26;82.88
19795;BME280;10057;59.402;17.866;2023-08-07T07:05:11;99557.47;;;21.27;82.54
19795;BME280;10057;59.402;17.866;2023-08-07T07:07:44;99566.13;;;21.31;82.65
19795;BME280;10057;59.402;17.866;2023-08-07T07:10:12;99550.53;;;21.25;82.49
19795;BME280;10057;59.402;17.866;2023-08-07T07:12:46;99547.22;;;21.31;82.75
19795;BME280;10057;59.402;17.866;2023-08-07T07:15:13;99511.16;;;21.32;82.63
19795;BME280;10057;59.402;17.866;2023-08-07T07:17:45;99482.28;;;21.24;82.52
19795;BME280;10057;59.402;17.866;2023-08-07T07:20:38;99487.44;;;21.36;82.54
19795;BME280;10057;59.402;17.866;2023-08-07T07:23:10;99487.69;;;21.42;82.73
19795;BME280;10057;59.402;17.866;2023-08-07T07:25:51;99475.50;;;21.38;82.94
19795;BME280;10057;59.402;17.866;2023-08-07T07:28:21;99520.97;;;21.51;82.35
19795;BME280;10057;59.402;17.866;2023-08-07T07:30:51;99512.56;;;21.54;82.52
19795;BME280;10057;59.402;17.866;2023-08-07T07:33:19;99471.88;;;21.47;82.34
19795;BME280;10057;59.402;17.866;2023-08-07T07:35:47;99469.22;;;21.56;82.51
19795;BME280;10057;59.402;17.866;2023-08-07T07:38:19;99469.53;;;21.52;82.67
19795;BME280;10057;59.402;17.866;2023-08-07T07:40:47;99466.03;;;21.60;82.54
19795;BME280;10057;59.402;17.866;2023-08-07T07:43:15;99468.75;;;21.60;82.30
19795;BME280;10057;59.402;17.866;2023-08-07T07:45:44;99475.84;;;21.61;82.61
19795;BME280;10057;59.402;17.866;2023-08-07T07:48:22;99465.41;;;21.66;82.83
19795;BME280;10057;59.402;17.866;2023-08-07T07:50:57;99476.28;;;21.74;82.95
19795;BME280;10057;59.402;17.866;2023-08-07T07:53:39;99447.56;;;21.73;82.87
19795;BME280;10057;59.402;17.866;2023-08-07T07:57:02;99479.38;;;21.88;82.61
19795;BME280;10057;59.402;17.866;2023-08-07T07:59:31;99454.84;;;21.73;82.42
19795;BME280;10057;59.402;17.866;2023-08-07T08:02:03;99470.53;;;21.77;82.31
19795;BME280;10057;59.402;17.866;2023-08-07T08:04:53;99483.72;;;21.81;82.20
19795;BME280;10057;59.402;17.866;2023-08-07T08:08:23;99480.91;;;21.90;82.64
19795;BME280;10057;59.402;17.866;2023-08-07T08:10:54;99455.88;;;21.80;81.96
19795;BME280;10057;59.402;17.866;2023-08-07T08:13:26;99455.03;;;21.80;82.07
19795;BME280;10057;59.402;17.866;2023-08-07T08:16:17;99483.09;;;21.87;82.08
19795;BME280;10057;59.402;17.866;2023-08-07T08:19:20;99471.56;;;21.76;82.23
19795;BME280;10057;59.402;17.866;2023-08-07T08:21:47;99486.94;;;21.84;82.25
19795;BME280;10057;59.402;17.866;2023-08-07T08:24:14;99478.31;;;21.81;82.43
19795;BME280;10057;59.402;17.866;2023-08-07T08:26:43;99472.06;;;21.80;82.20
19795;BME280;10057;59.402;17.866;2023-08-07T08:29:10;99478.84;;;21.84;82.45
19795;BME280;10057;59.402;17.866;2023-08-07T08:31:59;99472.34;;;21.95;82.58
19795;BME280;10057;59.402;17.866;2023-08-07T08:34:38;99459.69;;;21.95;82.39
19795;BME280;10057;59.402;17.866;2023-08-07T08:37:07;99471.13;;;22.15;82.35
19795;BME280;10057;59.402;17.866;2023-08-07T08:39:39;99480.19;;;22.14;82.13
19795;BME280;10057;59.402;17.866;2023-08-07T08:42:11;99470.38;;;22.05;81.99
19795;BME280;10057;59.402;17.866;2023-08-07T08:44:51;99473.41;;;22.10;82.15
19795;BME280;10057;59.402;17.866;2023-08-07T08:47:20;99468.03;;;22.10;82.40
19795;BME280;10057;59.402;17.866;2023-08-07T08:50:13;99470.97;;;22.25;82.23
19795;BME280;10057;59.402;17.866;2023-08-07T08:52:45;99450.56;;;22.22;81.98
19795;BME280;10057;59.402;17.866;2023-08-07T08:55:26;99463.44;;;22.37;81.76
19795;BME280;10057;59.402;17.866;2023-08-07T08:57:54;99458.69;;;22.39;81.58
19795;BME280;10057;59.402;17.866;2023-08-07T09:00:21;99455.34;;;22.45;81.86
19795;BME280;10057;59.402;17.866;2023-08-07T09:02:52;99448.13;;;22.54;81.97
19795;BME280;10057;59.402;17.866;2023-08-07T09:05:20;99456.25;;;22.62;81.43
19795;BME280;10057;59.402;17.866;2023-08-07T09:07:56;99443.94;;;22.67;81.46
19795;BME280;10057;59.402;17.866;2023-08-07T09:10:41;99455.72;;;22.66;81.41
19795;BME280;10057;59.402;17.866;2023-08-07T09:13:16;99468.44;;;22.74;81.04
19795;BME280;10057;59.402;17.866;2023-08-07T09:15:46;99479.59;;;22.79;81.25
19795;BME280;10057;59.402;17.866;2023-08-07T09:18:18;99476.22;;;22.77;81.16
19795;BME280;10057;59.402;17.866;2023-08-07T09:20:56;99468.44;;;22.82;81.11
19795;BME280;10057;59.402;17.866;2023-08-07T09:23:44;99441.56;;;22.73;81.19
19795;BME280;10057;59.402;17.866;2023-08-07T09:26:15;99448.00;;;22.80;81.75
19795;BME280;10057;59.402;17.866;2023-08-07T09:28:51;99462.59;;;22.95;81.29
19795;BME280;10057;59.402;17.866;2023-08-07T09:31:25;99453.78;;;22.93;81.14
19795;BME280;10057;59.402;17.866;2023-08-07T09:34:05;99451.94;;;23.02;81.11
19795;BME280;10057;59.402;17.866;2023-08-07T09:36:34;99442.31;;;22.99;80.80
19795;BME280;10057;59.402;17.866;2023-08-07T09:39:23;99448.41;;;23.09;80.76
19795;BME280;10057;59.402;17.866;2023-08-07T09:41:55;99441.28;;;23.16;80.96
19795;BME280;10057;59.402;17.866;2023-08-07T09:44:22;99441.13;;;23.18;80.88
19795;BME280;10057;59.402;17.866;2023-08-07T09:46:49;99434.19;;;23.24;80.72
19795;BME280;10057;59.402;17.866;2023-08-07T09:49:18;99415.44;;;23.22;80.73
19795;BME280;10057;59.402;17.866;2023-08-07T09:51:52;99407.81;;;23.26;80.62
19795;BME280;10057;59.402;17.866;2023-08-07T09:54:20;99411.19;;;23.36;80.33
19795;BME280;10057;59.402;17.866;2023-08-07T09:56:47;99413.56;;;23.39;80.29
19795;BME280;10057;59.402;17.866;2023-08-07T09:59:15;99415.91;;;23.42;80.44
19795;BME280;10057;59.402;17.866;2023-08-07T10:01:49;99415.56;;;23.45;80.32
19795;BME280;10057;59.402;17.866;2023-08-07T10:04:25;99422.00;;;23.52;80.40
19795;BME280;10057;59.402;17.866;2023-08-07T10:06:55;99410.44;;;23.58;80.77
19795;BME280;10057;59.402;17.866;2023-08-07T10:09:23;99409.75;;;23.64;80.43
19795;BME280;10057;59.402;17.866;2023-08-07T10:11:50;99409.13;;;23.71;80.21
19795;BME280;10057;59.402;17.866;2023-08-07T10:14:21;99409.94;;;23.71;80.02
19795;BME280;10057;59.402;17.866;2023-08-07T10:16:49;99404.53;;;23.71;80.10
19795;BME280;10057;59.402;17.866;2023-08-07T10:19:28;99404.03;;;23.68;79.90
19795;BME280;10057;59.402;17.866;2023-08-07T10:21:55;99409.75;;;23.81;80.19
19795;BME280;10057;59.402;17.866;2023-08-07T10:24:25;99403.50;;;23.80;79.95
19795;BME280;10057;59.402;17.866;2023-08-07T10:26:53;99398.59;;;23.84;79.72
19795;BME280;10057;59.402;17.866;2023-08-07T10:29:23;99405.69;;;23.85;79.69
19795;BME280;10057;59.402;17.866;2023-08-07T10:31:56;99405.53;;;23.78;79.59
19795;BME280;10057;59.402;17.866;2023-08-07T10:34:40;99414.63;;;23.85;79.66
19795;BME280;10057;59.402;17.866;2023-08-07T10:37:42;99421.56;;;23.88;79.70
19795;BME280;10057;59.402;17.866;2023-08-07T10:40:15;99417.84;;;23.89;79.54
19795;BME280;10057;59.402;17.866;2023-08-07T10:45:22;99425.13;;;23.97;79.81
19795;BME280;10057;59.402;17.866;2023-08-07T10:58:49;99411.31;;;24.15;80.60
19795;BME280;10057;59.402;17.866;2023-08-07T11:04:10;99407.38;;;24.25;81.19
19795;BME280;10057;59.402;17.866;2023-08-07T11:06:42;99398.69;;;24.30;81.06
19795;BME280;10057;59.402;17.866;2023-08-07T11:09:09;99394.59;;;24.34;81.39
19795;BME280;10057;59.402;17.866;2023-08-07T11:11:41;99401.06;;;24.41;81.18
19795;BME280;10057;59.402;17.866;2023-08-07T11:14:12;99410.31;;;24.47;81.19
19795;BME280;10057;59.402;17.866;2023-08-07T11:16:42;99406.97;;;24.45;81.01
19795;BME280;10057;59.402;17.866;2023-08-07T11:19:09;99403.34;;;24.52;80.62
19795;BME280;10057;59.402;17.866;2023-08-07T11:21:40;99394.53;;;24.50;80.52
19795;BME280;10057;59.402;17.866;2023-08-07T11:24:07;99389.31;;;24.49;80.54
19795;BME280;10057;59.402;17.866;2023-08-07T11:26:36;99377.56;;;24.56;80.78
19795;BME280;10057;59.402;17.866;2023-08-07T11:29:32;99365.16;;;24.62;80.27
19795;BME280;10057;59.402;17.866;2023-08-07T11:32:03;99370.72;;;24.69;80.19
19795;BME280;10057;59.402;17.866;2023-08-07T11:34:48;99392.41;;;24.69;79.67
19795;BME280;10057;59.402;17.866;2023-08-07T11:37:18;99391.38;;;24.70;79.37
19795;BME280;10057;59.402;17.866;2023-08-07T11:39:46;99375.78;;;24.72;79.39
19795;BME280;10057;59.402;17.866;2023-08-07T11:42:17;99376.13;;;24.69;79.25
19795;BME280;10057;59.402;17.866;2023-08-07T11:44:46;99394.75;;;24.72;78.70
19795;BME280;10057;59.402;17.866;2023-08-07T11:47:21;99409.50;;;24.69;78.85
19795;BME280;10057;59.402;17.866;2023-08-07T11:49:48;99392.41;;;24.69;78.57
19795;BME280;10057;59.402;17.866;2023-08-07T11:52:17;99397.47;;;24.72;78.43
19795;BME280;10057;59.402;17.866;2023-08-07T11:54:48;99386.63;;;24.72;78.42
19795;BME280;10057;59.402;17.866;2023-08-07T11:57:25;99394.69;;;24.80;78.49
19795;BME280;10057;59.402;17.866;2023-08-07T11:59:58;99376.38;;;24.82;78.04
19795;BME280;10057;59.402;17.866;2023-08-07T12:02:29;99371.44;;;24.86;77.67
19795;BME280;10057;59.402;17.866;2023-08-07T12:05:17;99369.38;;;24.88;77.58
19795;BME280;10057;59.402;17.866;2023-08-07T12:07:48;99376.94;;;24.92;78.00
19795;BME280;10057;59.402;17.866;2023-08-07T12:10:30;99372.88;;;24.96;77.36
19795;BME280;10057;59.402;17.866;2023-08-07T12:12:59;99373.13;;;25.01;77.33
19795;BME280;10057;59.402;17.866;2023-08-07T12:15:37;99371.75;;;25.05;77.41
19795;BME280;10057;59.402;17.866;2023-08-07T12:18:07;99379.88;;;25.05;76.94
19795;BME280;10057;59.402;17.866;2023-08-07T12:20:38;99386.34;;;25.04;77.01
19795;BME280;10057;59.402;17.866;2023-08-07T12:23:15;99385.78;;;25.09;76.64
19795;BME280;10057;59.402;17.866;2023-08-07T12:26:04;99377.16;;;25.05;76.59
19795;BME280;10057;59.402;17.866;2023-08-07T12:28:49;99376.53;;;25.03;76.32
19795;BME280;10057;59.402;17.866;2023-08-07T12:31:26;99383.47;;;25.06;76.48
19795;BME280;10057;59.402;17.866;2023-08-07T12:33:53;99364.28;;;25.08;76.21
19795;BME280;10057;59.402;17.866;2023-08-07T12:36:43;99372.22;;;25.09;76.48
19795;BME280;10057;59.402;17.866;2023-08-07T12:39:11;99364.41;;;25.14;76.59
19795;BME280;10057;59.402;17.866;2023-08-07T12:41:42;99365.56;;;25.20;76.37
19795;BME280;10057;59.402;17.866;2023-08-07T12:44:30;99361.97;;;25.19;75.77
19795;BME280;10057;59.402;17.866;2023-08-07T12:46:57;99370.31;;;25.18;75.89
19795;BME280;10057;59.402;17.866;2023-08-07T12:49:28;99350.84;;;25.14;75.74
19795;BME280;10057;59.402;17.866;2023-08-07T12:52:05;99325.81;;;25.04;75.23
19795;BME280;10057;59.402;17.866;2023-08-07T12:54:33;99307.09;;;25.09;75.42
19795;BME280;10057;59.402;17.866;2023-08-07T12:57:01;99306.28;;;25.09;75.65
19795;BME280;10057;59.402;17.866;2023-08-07T12:59:30;99307.63;;;25.13;75.21
19795;BME280;10057;59.402;17.866;2023-08-07T13:02:05;99315.09;;;25.11;75.55
19795;BME280;10057;59.402;17.866;2023-08-07T13:04:46;99302.91;;;25.06;75.01
19795;BME280;10057;59.402;17.866;2023-08-07T13:07:17;99288.88;;;25.03;74.86
19795;BME280;10057;59.402;17.866;2023-08-07T13:10:05;99272.22;;;24.91;75.09
19795;BME280;10057;59.402;17.866;2023-08-07T13:12:38;99281.53;;;24.74;75.05
19795;BME280;10057;59.402;17.866;2023-08-07T13:15:12;99314.88;;;24.59;74.84
19795;BME280;10057;59.402;17.866;2023-08-07T13:17:43;99352.00;;;24.51;75.17
19795;BME280;10057;59.402;17.866;2023-08-07T13:20:13;99358.72;;;24.32;75.08
19795;BME280;10057;59.402;17.866;2023-08-07T13:22:46;99410.75;;;24.27;75.16
19795;BME280;10057;59.402;17.866;2023-08-07T13:25:37;99423.16;;;24.13;75.19
19795;BME280;10057;59.402;17.866;2023-08-07T13:28:08;99420.88;;;23.94;75.11
19795;BME280;10057;59.402;17.866;2023-08-07T13:30:36;99417.19;;;23.79;75.56
19795;BME280;10057;59.402;17.866;2023-08-07T13:33:04;99410.09;;;23.61;75.86
19795;BME280;10057;59.402;17.866;2023-08-07T13:35:31;99421.63;;;23.55;76.11
19795;BME280;10057;59.402;17.866;2023-08-07T13:37:59;99424.34;;;23.47;76.31
19795;BME280;10057;59.402;17.866;2023-08-07T13:40:30;99423.00;;;23.43;76.61